• Join FlightAware (Why Join?)
  • Login
  • US Flag 
02:42AM EDT


 

Airport Tracker/Info


-or-


 

Live Flight TrackerFlight Track Log ✈ AFL150 ✈ 27-Jan-2014 ✈ UUEE / SVO - MUHA / HAV

Flight Track Log - Related Links

Times and Time Zones

All times are in EST time to prevent confusion due to time zone crossing. See the AFL150 flight status page for this flight to view local times or setup timezone preferences in your user account.

Time Position Orientation Groundspeed Altitude Reporting Facility
EST Latitude Longitude Course Direction KTS MPH feet Rate Location/Type
04:23AM 56.1904 37.1324 318° Northwest  Level FlightAware Approximate
04:24AM 56.2791 36.9890 318° Northwest  Level FlightAware Approximate
04:25AM 56.3677 36.8449 318° Northwest  Level FlightAware Approximate
04:26AM 56.4562 36.7001 318° Northwest  Level FlightAware Approximate
04:27AM 56.5445 36.5547 318° Northwest  Level FlightAware Approximate
04:28AM 56.6326 36.4086 318° Northwest  Level FlightAware Approximate
04:29AM 56.7205 36.2617 318° Northwest  Level FlightAware Approximate
04:30AM 56.8083 36.1143 317° Northwest  Level FlightAware Approximate
04:31AM 56.8958 35.9661 317° Northwest  Level FlightAware Approximate
04:32AM 56.9832 35.8172 317° Northwest  Level FlightAware Approximate
04:33AM 57.0705 35.6676 317° Northwest  Level FlightAware Approximate
04:34AM 57.1575 35.5174 317° Northwest  Level FlightAware Approximate
04:35AM 57.2444 35.3664 317° Northwest  Level FlightAware Approximate
04:36AM 57.3311 35.2147 317° Northwest  Level FlightAware Approximate
04:37AM 57.4176 35.0622 317° Northwest  Level FlightAware Approximate
04:38AM 57.5039 34.9091 316° Northwest  Level FlightAware Approximate
04:39AM 57.5900 34.7552 316° Northwest  Level FlightAware Approximate
04:40AM 57.6760 34.6007 316° Northwest  Level FlightAware Approximate
04:41AM 57.7617 34.4453 316° Northwest  Level FlightAware Approximate
04:42AM 57.7953 34.3808 315° West  Level FlightAware Approximate
04:43AM 57.8790 34.2211 315° West  Level FlightAware Approximate
04:44AM 57.9625 34.0607 315° West  Level FlightAware Approximate
04:45AM 58.0459 33.8996 314° West  Level FlightAware Approximate
04:46AM 58.1290 33.7376 314° West  Level FlightAware Approximate
04:47AM 58.2119 33.5750 314° West  Level FlightAware Approximate
04:48AM 58.2946 33.4115 314° West  Level FlightAware Approximate
04:49AM 58.3771 33.2473 314° West  Level FlightAware Approximate
04:50AM 58.4594 33.0824 314° West  Level FlightAware Approximate
04:50AM 56.4692 32.1329 314° West 454 522 34,000  Level FlightAware ADS-B (EVDA / DGP)
04:51AM 56.4883 31.9028 279° West 455 524 34,000  Level FlightAware ADS-B (EVDA / DGP)
04:52AM 56.5063 31.6806 278° West 457 526 34,000  Level FlightAware ADS-B (EVDA / DGP)
04:53AM 56.5236 31.4628 278° West 458 527 34,000  Level FlightAware ADS-B (EVDA / DGP)
04:54AM 56.5480 31.2264 281° West 458 527 34,000  Level FlightAware ADS-B (EVDA / DGP)
04:55AM 56.5955 31.0135 292° West 460 529 34,000  Level FlightAware ADS-B (EVDA / DGP)
04:56AM 56.6668 30.8238 304° West 464 534 34,000  Level FlightAware ADS-B (EVDA / DGP)
04:57AM 56.7468 30.6387 308° West 464 534 34,000  Level FlightAware ADS-B (EVDA / DGP)
04:58AM 56.8164 30.4552 305° West 465 535 34,000  Level FlightAware ADS-B (EVDA / DGP)
04:59AM 56.8871 30.2647 304° West 465 535 34,000  Level FlightAware ADS-B (EVDA / DGP)
05:00AM 56.9631 30.0574 304° West 467 537 34,000  Level FlightAware ADS-B (EVDA / DGP)
05:01AM 57.0353 29.8583 304° West 468 539 34,000  Level FlightAware ADS-B (EVDA / DGP)
05:02AM 57.1016 29.6745 304° West 470 541 34,000  Level FlightAware ADS-B (EVDA / DGP)
05:03AM 57.1776 29.4616 303° West 471 542 34,000  Level FlightAware ADS-B (EVDA / DGP)
05:04AM 57.2493 29.2592 303° West 473 544 34,000  Level FlightAware ADS-B (EVDA / DGP)
05:05AM 57.3194 29.0600 303° West 474 545 34,000  Level FlightAware ADS-B (EVDA / DGP)
05:06AM 57.3921 28.8517 303° West 475 547 34,000  Level FlightAware ADS-B (EVDA / DGP)
05:07AM 57.4625 28.6483 303° West 475 547 34,000  Level FlightAware ADS-B (EVDA / DGP)
05:08AM 57.5328 28.4432 303° West 476 548 34,000  Level FlightAware ADS-B (EVDA / DGP)
05:09AM 57.6036 28.2349 302° West 478 550 34,000  Level FlightAware ADS-B (EVDA / DGP)
05:10AM 57.6748 28.0236 302° West 479 551 34,000  Level FlightAware ADS-B (EVDA / DGP)
05:11AM 57.7454 27.8125 302° West 481 554 34,000  Level FlightAware ADS-B (EVDA / DGP)
05:12AM 57.8156 27.6007 302° West 482 555 34,000  Level FlightAware ADS-B (EVDA / DGP)
05:13AM 57.8683 27.3789 294° West 479 551 34,000  Level FlightAware ADS-B (EVDA / DGP)
05:14AM 57.9145 27.1455 291° West 481 554 34,000  Level FlightAware ADS-B (EVDA / DGP)
05:15AM 57.9622 26.9076 291° West 484 557 34,000  Level FlightAware ADS-B (EVDA / DGP)
05:16AM 58.0098 26.6680 291° West 484 557 34,000  Level FlightAware ADS-B (EVDA / DGP)
05:17AM 58.0558 26.4311 290° West 483 556 34,000  Level FlightAware ADS-B (EVDA / DGP)
05:18AM 58.0983 26.2016 289° West 483 556 34,000  Level FlightAware ADS-B (EVDA / DGP)
05:19AM 58.1418 25.9536 288° West 485 558 34,000  Level FlightAware ADS-B (EVDA / DGP)
05:20AM 58.1836 25.7131 288° West 483 556 34,000  Level FlightAware ADS-B (EVDA / DGP)
05:21AM 58.2243 25.4767 288° West 479 551 34,000  Level FlightAware ADS-B (EVDA / DGP)
05:22AM 58.2642 25.2424 288° West 477 549 34,000  Level FlightAware ADS-B (EVDA / DGP)
05:23AM 58.3050 24.9990 288° West 476 548 34,000  Level FlightAware ADS-B (EVDA / DGP)
05:24AM 58.3449 24.7570 288° West 476 548 34,000  Level FlightAware ADS-B (EVDA / DGP)
05:25AM 58.3758 24.5682 287° West 476 548 34,000  Level FlightAware ADS-B (EVDA / DGP)
05:26AM 58.3973 24.4352 287° West 477 549 34,000  Level FlightAware ADS-B (EVDA / DGP)
05:37AM 58.8026 21.7107 294° West 467 537 34,000  Level FlightAware ADS-B (ESKB)
05:38AM 58.8250 21.5461 285° West 468 539 34,000  Level FlightAware ADS-B (ESKB)
05:38AM 58.8518 21.3816 288° West 469 540 34,000  Level FlightAware ADS-B (ESKB)
05:39AM 58.8778 21.2341 289° West 468 539 34,000  Level FlightAware ADS-B (ESKB)
05:40AM 58.9042 21.0780 288° West 467 537 34,000  Level FlightAware ADS-B (ESKB)
05:40AM 58.9125 21.0281 288° West 466 536 34,000  Level FlightAware ADS-B (ESKB)
05:40AM 58.9267 20.9428 288° West 465 535 34,000  Level FlightAware ADS-B (ESKB)
05:41AM 58.9476 20.8156 288° West 460 529 34,000  Level FlightAware ADS-B
05:41AM 58.9685 20.6888 288° West 461 531 34,000  Level FlightAware ADS-B (ESKB)
05:42AM 58.9685 20.6888 288° West 460 529 34,000  Level FlightAware ADS-B (ESKB)
05:43AM 58.9685 20.6888 288° West 461 531 34,000  Level FlightAware ADS-B (ESKB)
05:44AM 59.0689 20.0589 287° West 461 531 34,000  Level FlightAware ADS-B
05:44AM 59.0877 19.9386 287° West 462 532 34,000  Level FlightAware ADS-B
05:45AM 59.1086 19.8043 287° West 465 535 34,000  Level FlightAware ADS-B (ESKB)
05:46AM 59.1321 19.6510 287° West 467 537 34,000  Level FlightAware ADS-B
05:46AM 59.1576 19.4845 287° West 467 537 34,000  Level FlightAware ADS-B (ESKB)
05:47AM 59.1796 19.3393 287° West 469 540 34,000  Level FlightAware ADS-B
05:47AM 59.1967 19.2252 286° West 470 541 34,000  Level FlightAware ADS-B
05:48AM 59.2152 19.1001 286° West 468 539 34,000  Level FlightAware ADS-B
05:49AM 59.2422 18.9165 286° West 470 541 34,000  Level FlightAware ADS-B
05:49AM 59.2603 18.7932 286° West 470 541 34,000  Level FlightAware ADS-B
05:50AM 59.2783 18.6689 286° West 471 542 34,000  Level FlightAware ADS-B (ESKB)
05:50AM 59.3013 18.5087 286° West 471 542 34,000  Level FlightAware ADS-B (ESKB)
05:51AM 59.3250 18.3421 286° West 470 541 34,000  Level FlightAware ADS-B (ESKB)
05:52AM 59.3468 18.1867 285° West 470 541 34,000  Level FlightAware ADS-B (ESKB)
05:52AM 59.3667 18.0447 285° West 466 536 34,000  Level FlightAware ADS-B
05:53AM 59.3846 17.9156 285° West 466 536 34,000  Level FlightAware ADS-B
05:53AM 59.4046 17.7695 285° West 466 536 34,000  Level FlightAware ADS-B (ESKB)
05:54AM 59.4157 17.6883 285° West 461 531 34,000  Level FlightAware ADS-B
05:54AM 59.4324 17.5641 285° West 461 531 34,000  Level FlightAware ADS-B
05:55AM 59.4484 17.4445 285° West 460 529 34,000  Level FlightAware ADS-B (ESKB)
05:55AM 59.4687 17.2918 285° West 458 527 34,000  Level FlightAware ADS-B (ESKB)
05:56AM 59.4896 17.1333 285° West 455 524 34,000  Level FlightAware ADS-B (ESKB)
05:56AM 59.5066 17.0032 284° West 452 520 34,000  Level FlightAware ADS-B
05:57AM 59.5289 16.8296 284° West 446 513 34,000  Level FlightAware ADS-B
05:58AM 59.5443 16.7101 284° West 446 513 34,000  Level FlightAware ADS-B
05:58AM 59.5633 16.5803 286° West 448 516 34,000  Level FlightAware ADS-B
05:59AM 59.5845 16.4643 290° West 448 516 34,000  Level FlightAware ADS-B
05:59AM 59.5982 16.3862 289° West 448 516 34,000  Level FlightAware ADS-B (ESKB)
06:00AM 59.6214 16.2494 289° West 446 513 34,000  Level FlightAware ADS-B (ESKB)
06:01AM 59.6573 16.0327 288° West 446 513 34,000  Level FlightAware ADS-B (ESKB)
06:01AM 59.6770 15.9125 288° West 443 510 34,000  Level FlightAware ADS-B
06:02AM 59.7158 15.6736 288° West 446 513 34,000  Level FlightAware ADS-B
06:03AM 59.7347 15.5564 288° West 450 518 34,000  Level FlightAware ADS-B
06:03AM 59.7536 15.4379 288° West 450 518 34,000  Level FlightAware ADS-B
06:04AM 59.7722 15.3203 288° West 448 516 34,000  Level FlightAware ADS-B
06:04AM 59.7998 15.1452 287° West 449 517 34,000  Level FlightAware ADS-B
06:05AM 59.8180 15.0295 287° West 449 517 34,000  Level FlightAware ADS-B
06:06AM 59.8449 14.8558 287° West 450 518 34,000  Level FlightAware ADS-B
06:06AM 59.8631 14.7372 287° West 451 519 34,000  Level FlightAware ADS-B
06:07AM 59.8828 14.6082 287° West 450 518 34,000  Level FlightAware ADS-B
06:07AM 59.9015 14.4841 287° West 451 519 34,000  Level FlightAware ADS-B
06:08AM 59.9282 14.3063 287° West 451 519 34,000  Level FlightAware ADS-B
06:08AM 59.9476 14.1750 287° West 450 518 34,000  Level FlightAware ADS-B
06:09AM 59.9739 13.9960 286° West 448 516 34,000  Level FlightAware ADS-B
06:10AM 59.9976 13.8339 286° West 450 518 34,000  Level FlightAware ADS-B
06:10AM 60.0143 13.7176 286° West 451 519 34,000  Level FlightAware ADS-B
06:11AM 60.0407 13.5329 286° West 454 522 34,000 60 Level FlightAware ADS-B
06:12AM 60.0576 13.4136 286° West 456 525 34,100 660 Climbing FlightAware ADS-B
06:12AM 60.0814 13.2440 286° West 456 525 34,800 1,020 Climbing FlightAware ADS-B
06:13AM 60.1066 13.0631 286° West 454 522 35,600 960 Climbing FlightAware ADS-B
06:14AM 60.1231 12.9432 286° West 452 520 36,000 300 Climbing FlightAware ADS-B
06:14AM 60.1478 12.7618 285° West 455 524 36,000  Level FlightAware ADS-B
06:15AM 60.1642 12.6408 285° West 455 524 36,000  Level FlightAware ADS-B
06:15AM 60.1848 12.4866 285° West 456 525 36,000  Level FlightAware ADS-B
06:16AM 60.2015 12.3606 285° West 455 524 36,000  Level FlightAware ADS-B
06:17AM 60.2242 12.1878 285° West 454 522 36,000  Level FlightAware ADS-B
06:17AM 60.2403 12.0634 285° West 456 525 36,000  Level FlightAware ADS-B
06:18AM 60.2559 11.9430 285° West 457 526 36,000  Level FlightAware ADS-B
06:18AM 60.2777 11.7722 285° West 457 526 36,000  Level FlightAware ADS-B
06:19AM 60.3076 11.5351 284° West 458 527 36,000  Level FlightAware ADS-B
06:20AM 60.3300 11.3546 284° West 458 527 36,000  Level FlightAware ADS-B
06:21AM 60.3454 11.2288 284° West 458 527 36,000  Level FlightAware ADS-B
06:21AM 60.3683 11.0402 284° West 459 528 36,000  Level FlightAware ADS-B
06:22AM 60.3893 10.8652 284° West 461 531 36,000  Level FlightAware ADS-B
06:22AM 60.4041 10.7411 284° West 460 529 36,000  Level FlightAware ADS-B
06:23AM 60.4255 10.5593 283° West 462 532 36,000  Level FlightAware ADS-B
06:24AM 60.4478 10.3672 283° West 463 533 36,000  Level FlightAware ADS-B
06:25AM 60.4653 10.2139 283° West 463 533 36,000  Level FlightAware ADS-B
06:25AM 60.4796 10.0877 283° West 463 533 36,000  Level FlightAware ADS-B
06:26AM 60.4944 9.9562 283° West 463 533 36,000  Level FlightAware ADS-B
06:26AM 60.5099 9.8162 283° West 464 534 36,000  Level FlightAware ADS-B
06:27AM 60.5245 9.6837 283° West 465 535 36,000  Level FlightAware ADS-B
06:27AM 60.5389 9.5519 283° West 467 537 36,000  Level FlightAware ADS-B
06:28AM 60.5530 9.4216 282° West 468 539 36,000  Level FlightAware ADS-B
06:28AM 60.5731 9.2323 282° West 470 541 36,000  Level FlightAware ADS-B
06:30AM 60.6071 8.9076 282° West 468 539 36,000  Level FlightAware ADS-B
06:30AM 60.6259 8.7241 282° West 470 541 36,000  Level FlightAware ADS-B
06:31AM 60.6390 8.5943 282° West 470 541 36,000  Level FlightAware ADS-B
06:32AM 60.6565 8.4192 282° West 467 537 36,000  Level FlightAware ADS-B
06:32AM 60.6698 8.2858 281° West 467 537 36,000  Level FlightAware ADS-B
06:33AM 60.6830 8.1497 281° West 466 536 36,000  Level FlightAware ADS-B
06:34AM 60.7239 7.7192 281° West 471 542 36,000  Level FlightAware ADS-B (EGBP)
06:35AM 60.7403 7.5437 281° West 470 541 36,000  Level FlightAware ADS-B (EGBP)
06:36AM 60.7562 7.3695 281° West 469 540 36,000  Level FlightAware ADS-B (EGBP)
06:36AM 60.7719 7.1947 280° West 471 542 36,000  Level FlightAware ADS-B (EGBP)
06:37AM 60.7869 7.0261 280° West 474 545 36,000  Level FlightAware ADS-B (EGBP)
06:38AM 60.8029 6.8419 280° West 475 547 36,000  Level FlightAware ADS-B (EGBP)
06:38AM 60.8179 6.6674 280° West 476 548 36,000  Level FlightAware ADS-B (EGBP)
06:39AM 60.8328 6.4915 280° West 475 547 36,000  Level FlightAware ADS-B (EGBP)
06:40AM 60.8479 6.3099 280° West 476 548 36,000  Level FlightAware ADS-B (EGBP)
06:40AM 60.8624 6.1331 280° West 478 550 36,000  Level FlightAware ADS-B (EGBP)
06:41AM 60.8752 5.9739 279° West 479 551 36,000  Level FlightAware ADS-B (EGBP)
06:43AM 60.9102 5.5715 280° West  Level Estimated
06:44AM 60.9306 5.3296 280° West  Level Estimated
06:45AM 60.9506 5.0874 280° West  Level Estimated
06:46AM 60.9701 4.8450 280° West  Level Estimated
06:47AM 60.9893 4.6022 279° West  Level Estimated
06:48AM 61.0079 4.3591 279° West  Level Estimated
06:49AM 61.0262 4.1158 279° West  Level Estimated
06:50AM 61.0440 3.8722 279° West  Level Estimated
06:51AM 61.0613 3.6283 278° West  Level Estimated
06:52AM 61.0782 3.3841 278° West  Level Estimated
06:53AM 61.0947 3.1397 278° West  Level Estimated
06:54AM 61.1108 2.8951 278° West  Level Estimated
06:55AM 61.1264 2.6502 278° West  Level Estimated
06:56AM 61.1415 2.4050 277° West  Level Estimated
06:57AM 61.1562 2.1596 277° West  Level Estimated
06:58AM 61.1705 1.9140 277° West  Level Estimated
06:59AM 61.1843 1.6682 277° West  Level Estimated
07:00AM 61.1977 1.4222 277° West  Level Estimated
07:01AM 61.2106 1.1759 276° West  Level Estimated
07:02AM 61.2231 0.9295 276° West  Level Estimated
07:03AM 61.2351 0.6829 276° West  Level Estimated
07:04AM 61.2467 0.4360 276° West  Level Estimated
07:05AM 61.2578 0.1890 275° West  Level Estimated
07:06AM 61.2685 -0.0581 275° West  Level Estimated
07:07AM 61.2787 -0.3055 275° West  Level Estimated
07:08AM 61.2885 -0.5530 275° West  Level Estimated
07:09AM 61.2978 -0.8006 275° West  Level Estimated
07:10AM 61.3067 -1.0484 274° West  Level Estimated
07:11AM 61.3151 -1.2963 274° West  Level Estimated
07:12AM 61.3231 -1.5444 274° West  Level Estimated
07:13AM 61.3307 -1.7925 274° West  Level Estimated
07:14AM 61.3377 -2.0408 274° West  Level Estimated
07:15AM 61.3443 -2.2892 273° West  Level Estimated
07:16AM 61.3505 -2.5377 273° West  Level Estimated
07:17AM 61.3562 -2.7863 273° West  Level Estimated
07:18AM 61.3615 -3.0350 273° West  Level Estimated
07:19AM 61.3663 -3.2837 272° West  Level Estimated
07:20AM 61.3706 -3.5326 272° West  Level Estimated
07:21AM 61.3745 -3.7815 272° West  Level Estimated
07:22AM 61.3780 -4.0304 272° West  Level Estimated
07:23AM 61.3810 -4.2794 272° West  Level Estimated
07:24AM 61.3835 -4.5285 271° West  Level Estimated
07:25AM 61.3856 -4.7776 271° West  Level Estimated
07:26AM 61.3872 -5.0267 271° West  Level Estimated
07:27AM 61.3884 -5.2758 271° West  Level Estimated
07:28AM 61.3891 -5.5250 270° West  Level Estimated
07:29AM 61.3893 -5.7742 270° West  Level Estimated
07:30AM 61.3891 -6.0233 270° West  Level Estimated
07:31AM 61.3885 -6.2725 270° West  Level Estimated
07:32AM 61.3874 -6.5216 270° West  Level Estimated
07:33AM 61.3858 -6.7707 269° West  Level Estimated
07:34AM 61.3838 -7.0198 269° West  Level Estimated
07:35AM 61.3813 -7.2689 269° West  Level Estimated
07:36AM 61.3784 -7.5179 269° West  Level Estimated
07:37AM 61.3750 -7.7669 268° West  Level Estimated
07:38AM 61.3711 -8.0158 268° West  Level Estimated
07:39AM 61.3668 -8.2646 268° West  Level Estimated
07:40AM 61.3621 -8.5134 268° West  Level Estimated
07:41AM 61.3569 -8.7621 268° West  Level Estimated
07:42AM 61.3512 -9.0107 267° West  Level Estimated
07:43AM 61.3451 -9.2592 267° West  Level Estimated
07:44AM 61.3385 -9.5076 267° West  Level Estimated
07:45AM 61.3315 -9.7559 267° West  Level Estimated
07:46AM 61.3241 -10.0041 267° West  Level Estimated
07:47AM 61.3161 -10.2521 266° West  Level Estimated
07:48AM 61.3078 -10.5001 266° West  Level Estimated
07:49AM 61.2989 -10.7479 266° West  Level Estimated
07:50AM 61.2896 -10.9956 266° West  Level Estimated
07:51AM 61.2799 -11.2431 265° West  Level Estimated
07:52AM 61.2697 -11.4904 265° West  Level Estimated
07:53AM 61.2591 -11.7376 265° West  Level Estimated
07:54AM 61.2480 -11.9846 265° West  Level Estimated
07:55AM 61.2365 -12.2315 265° West  Level Estimated
07:56AM 61.2245 -12.4781 264° West  Level Estimated
07:57AM 61.2121 -12.7246 264° West  Level Estimated
07:58AM 61.1992 -12.9708 264° West  Level Estimated
07:59AM 61.1859 -13.2169 264° West  Level Estimated
08:00AM 61.1721 -13.4628 263° West  Level Estimated
08:01AM 61.1579 -13.7084 263° West  Level Estimated
08:02AM 61.1433 -13.9538 263° West  Level Estimated
08:03AM 61.1282 -14.1990 263° West  Level Estimated
08:04AM 61.1126 -14.4439 263° West  Level Estimated
08:05AM 61.0967 -14.6886 262° West  Level Estimated
08:06AM 61.0802 -14.9330 262° West  Level Estimated
08:07AM 61.0634 -15.1772 262° West  Level Estimated
08:08AM 61.0461 -15.4212 262° West  Level Estimated
08:09AM 61.0283 -15.6648 262° West  Level Estimated
08:10AM 61.0101 -15.9082 261° West  Level Estimated
08:11AM 60.9915 -16.1513 261° West  Level Estimated
08:12AM 60.9725 -16.3941 261° West  Level Estimated
08:13AM 60.9530 -16.6366 261° West  Level Estimated
08:14AM 60.9330 -16.8788 260° West  Level Estimated
08:15AM 60.9127 -17.1207 260° West  Level Estimated
08:16AM 60.8919 -17.3623 260° West  Level Estimated
08:17AM 60.8706 -17.6036 260° West  Level Estimated
08:18AM 60.8490 -17.8445 260° West  Level Estimated
08:19AM 60.8269 -18.0852 259° West  Level Estimated
08:20AM 60.8044 -18.3255 259° West  Level Estimated
08:21AM 60.7814 -18.5654 259° West  Level Estimated
08:22AM 60.7580 -18.8050 259° West  Level Estimated
08:23AM 60.7342 -19.0443 259° West  Level Estimated
08:24AM 60.7100 -19.2831 258° West  Level Estimated
08:25AM 60.6854 -19.5217 258° West  Level Estimated
08:26AM 60.6603 -19.7598 258° West  Level Estimated
08:27AM 60.6348 -19.9976 258° West  Level Estimated
08:28AM 60.6089 -20.2350 258° West  Level Estimated
08:29AM 60.5825 -20.4720 257° West  Level Estimated
08:30AM 60.5558 -20.7087 257° West  Level Estimated
08:31AM 60.5286 -20.9449 257° West  Level Estimated
08:32AM 60.5010 -21.1807 257° West  Level Estimated
08:33AM 60.4730 -21.4162 257° West  Level Estimated
08:34AM 60.4446 -21.6512 256° West  Level Estimated
08:35AM 60.4157 -21.8858 256° West  Level Estimated
08:36AM 60.3865 -22.1200 256° West  Level Estimated
08:37AM 60.3568 -22.3538 256° West  Level Estimated
08:38AM 60.3267 -22.5871 256° West  Level Estimated
08:39AM 60.2963 -22.8200 255° West  Level Estimated
08:40AM 60.2654 -23.0525 255° West  Level Estimated
08:41AM 60.2341 -23.2845 255° West  Level Estimated
08:42AM 60.2024 -23.5161 255° West  Level Estimated
08:43AM 60.1703 -23.7473 254° West  Level Estimated
08:44AM 60.1378 -23.9779 254° West  Level Estimated
08:45AM 60.1049 -24.2082 254° West  Level Estimated
08:46AM 60.0716 -24.4379 254° West  Level Estimated
08:47AM 60.0379 -24.6672 254° West  Level Estimated
08:48AM 60.0038 -24.8960 253° West  Level Estimated
08:49AM 59.9694 -25.1244 253° West  Level Estimated
08:50AM 59.9345 -25.3523 253° West  Level Estimated
08:51AM 59.8992 -25.5797 253° West  Level Estimated
08:52AM 59.8636 -25.8066 253° West  Level Estimated
08:53AM 59.8275 -26.0330 253° West  Level Estimated
08:54AM 59.7911 -26.2589 252° West  Level Estimated
08:55AM 59.7542 -26.4844 252° West  Level Estimated
08:56AM 59.7170 -26.7093 252° West  Level Estimated
08:57AM 59.6795 -26.9337 252° West  Level Estimated
08:58AM 59.6415 -27.1576 252° West  Level Estimated
08:59AM 59.6031 -27.3811 251° West  Level Estimated
09:00AM 59.5644 -27.6040 251° West  Level Estimated
09:01AM 59.5253 -27.8263 251° West  Level Estimated
09:02AM 59.4858 -28.0482 251° West  Level Estimated
09:03AM 59.4459 -28.2696 251° West  Level Estimated
09:04AM 59.4057 -28.4904 250° West  Level Estimated
09:05AM 59.3651 -28.7107 250° West  Level Estimated
09:06AM 59.3241 -28.9305 250° West  Level Estimated
09:07AM 59.2827 -29.1497 250° West  Level Estimated
09:08AM 59.2410 -29.3684 250° West  Level Estimated
09:09AM 59.1990 -29.5866 249° West  Level Estimated
09:10AM 59.1565 -29.8042 249° West  Level Estimated
09:11AM 59.1137 -30.0213 249° West  Level Estimated
09:12AM 59.0705 -30.2378 249° West  Level Estimated
09:13AM 59.0270 -30.4538 249° West  Level Estimated
09:14AM 58.9831 -30.6693 249° West  Level Estimated
09:15AM 58.9389 -30.8842 248° West  Level Estimated
09:16AM 58.8948 -31.0961 248° West  Level Estimated
09:17AM 58.8503 -31.3075 248° West  Level Estimated
09:18AM 58.8055 -31.5183 248° West  Level Estimated
09:19AM 58.7604 -31.7286 248° West  Level Estimated
09:20AM 58.7149 -31.9384 247° West  Level Estimated
09:21AM 58.6691 -32.1476 247° West  Level Estimated
09:22AM 58.6230 -32.3562 247° West  Level Estimated
09:23AM 58.5765 -32.5643 247° West  Level Estimated
09:24AM 58.5297 -32.7719 247° West  Level Estimated
09:25AM 58.4825 -32.9789 247° West  Level Estimated
09:26AM 58.4350 -33.1853 246° West  Level Estimated
09:27AM 58.3872 -33.3912 246° West  Level Estimated
09:28AM 58.3390 -33.5965 246° West  Level Estimated
09:29AM 58.2906 -33.8013 246° West  Level Estimated
09:30AM 58.2418 -34.0054 246° West  Level Estimated
09:31AM 58.1926 -34.2091 245° Southwest  Level Estimated
09:32AM 58.1432 -34.4121 245° Southwest  Level Estimated
09:33AM 58.0934 -34.6146 245° Southwest  Level Estimated
09:34AM 58.0433 -34.8166 245° Southwest  Level Estimated
09:35AM 57.9929 -35.0179 245° Southwest  Level Estimated
09:36AM 57.9422 -35.2188 245° Southwest  Level Estimated
09:37AM 57.8911 -35.4190 244° Southwest  Level Estimated
09:38AM 57.8398 -35.6186 244° Southwest  Level Estimated
09:39AM 57.7881 -35.8177 244° Southwest  Level Estimated
09:40AM 57.7361 -36.0163 244° Southwest  Level Estimated
09:41AM 57.6838 -36.2142 244° Southwest  Level Estimated
09:42AM 57.6312 -36.4116 244° Southwest  Level Estimated
09:43AM 57.5783 -36.6084 243° Southwest  Level Estimated
09:44AM 57.5251 -36.8046 243° Southwest  Level Estimated
09:45AM 57.4716 -37.0003 243° Southwest  Level Estimated
09:46AM 57.4178 -37.1954 243° Southwest  Level Estimated
09:47AM 57.3637 -37.3899 243° Southwest  Level Estimated
09:48AM 57.3092 -37.5838 243° Southwest  Level Estimated
09:49AM 57.2545 -37.7772 242° Southwest  Level Estimated
09:50AM 57.1995 -37.9700 242° Southwest  Level Estimated
09:51AM 57.1442 -38.1622 242° Southwest  Level Estimated
09:52AM 57.0886 -38.3538 242° Southwest  Level Estimated
09:53AM 57.0327 -38.5449 242° Southwest  Level Estimated
09:54AM 56.9766 -38.7354 242° Southwest  Level Estimated
09:55AM 56.9201 -38.9253 241° Southwest  Level Estimated
09:56AM 56.8633 -39.1146 241° Southwest  Level Estimated
09:57AM 56.8063 -39.3034 241° Southwest  Level Estimated
09:58AM 56.7490 -39.4916 241° Southwest  Level Estimated
09:59AM 56.6914 -39.6792 241° Southwest  Level Estimated
10:00AM 56.6335 -39.8662 241° Southwest  Level Estimated
10:01AM 56.5753 -40.0527 241° Southwest  Level Estimated
10:02AM 56.5169 -40.2386 240° Southwest  Level Estimated
10:03AM 56.4581 -40.4239 240° Southwest  Level Estimated
10:04AM 56.3992 -40.6086 240° Southwest  Level Estimated
10:05AM 56.3399 -40.7928 240° Southwest  Level Estimated
10:06AM 56.2803 -40.9764 240° Southwest  Level Estimated
10:07AM 56.2205 -41.1594 240° Southwest  Level Estimated
10:08AM 56.1604 -41.3419 239° Southwest  Level Estimated
10:09AM 56.1001 -41.5237 239° Southwest  Level Estimated
10:10AM 56.0395 -41.7050 239° Southwest  Level Estimated
10:11AM 55.9786 -41.8858 239° Southwest  Level Estimated
10:12AM 55.9174 -42.0659 239° Southwest  Level Estimated
10:13AM 55.8560 -42.2455 239° Southwest  Level Estimated
10:14AM 55.7944 -42.4246 239° Southwest  Level Estimated
10:15AM 55.7324 -42.6031 238° Southwest  Level Estimated
10:16AM 55.6702 -42.7809 238° Southwest  Level Estimated
10:17AM 55.6078 -42.9583 238° Southwest  Level Estimated
10:18AM 55.5451 -43.1351 238° Southwest  Level Estimated
10:19AM 55.4822 -43.3112 238° Southwest  Level Estimated
10:20AM 55.4190 -43.4869 238° Southwest  Level Estimated
10:21AM 55.3555 -43.6620 238° Southwest  Level Estimated
10:22AM 55.2918 -43.8365 237° Southwest  Level Estimated
10:23AM 55.2279 -44.0104 237° Southwest  Level Estimated
10:24AM 55.1637 -44.1838 237° Southwest  Level Estimated
10:25AM 55.0992 -44.3567 237° Southwest  Level Estimated
10:26AM 55.0345 -44.5290 237° Southwest  Level Estimated
10:27AM 54.9696 -44.7007 237° Southwest  Level Estimated
10:28AM 54.9018 -44.8788 237° Southwest  Level Estimated
10:28AM 62.9833 -55.8167 236° Southwest 490 564 37,000  Level Gander Center
10:29AM 54.8337 -45.0563 236° Southwest  Level Estimated
10:29AM 62.9333 -56.1167 250° West 490 564 37,000  Level Gander Center
10:30AM 54.7654 -45.2331 236° Southwest  Level Estimated
10:30AM 62.8667 -56.3833 241° Southwest 490 564 37,000  Level Gander Center
10:31AM 54.6968 -45.4094 236° Southwest  Level Estimated
10:31AM 62.8000 -56.6500 241° Southwest 500 575 37,000  Level Gander Center
10:32AM 54.6280 -45.5851 236° Southwest  Level Estimated
10:32AM 62.7333 -56.9000 240° Southwest 500 575 37,000  Level Gander Center
10:33AM 54.5589 -45.7602 236° Southwest  Level Estimated
10:33AM 62.6833 -57.2000 250° West 500 575 37,000  Level Gander Center
10:33AM 62.6500 -57.3000 234° Southwest 500 575 37,000  Level Montreal Center
10:34AM 62.5667 -57.5667 236° Southwest 500 575 37,000  Level Montreal Center
10:35AM 62.5167 -57.8333 248° West 500 575 37,000  Level Montreal Center
10:36AM 62.4667 -58.0833 247° West 490 564 37,000  Level Montreal Center
10:37AM 62.4000 -58.3500 242° Southwest 490 564 37,000  Level Montreal Center
10:38AM 62.3500 -58.6000 247° West 490 564 37,000  Level Montreal Center
10:39AM 62.2667 -58.8667 236° Southwest 490 564 37,000  Level Montreal Center
10:40AM 62.2167 -59.1167 247° West 490 564 37,000  Level Montreal Center
10:41AM 62.1500 -59.3667 240° Southwest 500 575 37,000  Level Montreal Center
10:42AM 62.0833 -59.6667 245° Southwest 500 575 37,000  Level Montreal Center
10:43AM 62.0167 -59.9167 240° Southwest 500 575 37,000  Level Montreal Center
10:44AM 61.9667 -60.2000 250° West 510 587 37,000  Level Montreal Center
10:45AM 61.9333 -60.5167 258° West 510 587 37,000  Level Montreal Center
10:46AM 61.8833 -60.7833 248° West 520 598 37,000  Level Montreal Center
10:47AM 61.8333 -61.1000 252° West 520 598 37,000  Level Montreal Center
10:48AM 61.7833 -61.3833 250° West 520 598 37,000  Level Montreal Center
10:49AM 61.7500 -61.6500 255° West 520 598 37,000  Level Montreal Center
10:50AM 61.6833 -61.9667 246° West 520 598 37,000  Level Montreal Center
10:51AM 61.6333 -62.2333 249° West 520 598 37,000  Level Montreal Center
10:52AM 61.5833 -62.5000 249° West 520 598 37,000  Level Montreal Center
10:53AM 61.5333 -62.8167 252° West 520 598 37,000  Level Montreal Center
10:54AM 61.4833 -63.0833 249° West 520 598 37,000  Level Montreal Center
10:55AM 61.4333 -63.3500 249° West 540 621 37,000  Level Montreal Center
10:56AM 61.3667 -63.6667 246° West 520 598 37,000  Level Montreal Center
10:57AM 61.3333 -63.9667 257° West 520 598 37,000  Level Montreal Center
10:58AM 61.2667 -64.2333 243° Southwest 530 610 37,100 240 Climbing Montreal Center
10:59AM 61.2167 -64.5000 249° West 520 598 37,500 420 Climbing Montreal Center
11:00AM 61.1667 -64.8000 251° West 520 598 38,000 240 Climbing Montreal Center
11:01AM 61.1167 -65.0500 248° West 490 564 38,000  Level Montreal Center
11:02AM 61.0667 -65.3167 249° West 500 575 38,000  Level Montreal Center
11:03AM 61.0000 -65.5833 243° Southwest 500 575 38,000  Level Montreal Center
11:04AM 60.9500 -65.8500 249° West 490 564 38,000  Level Montreal Center
11:05AM 60.9000 -66.1000 248° West 480 552 38,000  Level Montreal Center
11:06AM 60.8500 -66.3333 246° West 500 575 38,000  Level Montreal Center
11:07AM 60.7667 -66.6000 237° Southwest 490 564 38,000  Level Montreal Center
11:08AM 60.6833 -66.7833 227° Southwest 470 541 38,000  Level Montreal Center
11:09AM 60.6000 -66.9500 225° Southwest 460 529 38,000  Level Montreal Center
11:10AM 60.4833 -67.0500 203° Southwest 450 518 38,000  Level Montreal Center
11:11AM 60.3500 -67.1500 200° South 450 518 38,000  Level Montreal Center
11:12AM 60.2500 -67.2833 214° Southwest 460 529 38,000  Level Montreal Center
11:13AM 60.1500 -67.4167 214° Southwest 460 529 38,000  Level Montreal Center
11:14AM 60.0333 -67.5333 207° Southwest 460 529 38,000  Level Montreal Center
11:15AM 59.9333 -67.6667 214° Southwest 450 518 38,000  Level Montreal Center
11:16AM 59.8167 -67.8000 210° Southwest 460 529 38,000  Level Montreal Center
11:17AM 59.7167 -67.9167 210° Southwest 460 529 38,000  Level Montreal Center
11:18AM 59.6000 -68.0500 210° Southwest 460 529 38,000  Level Montreal Center
11:19AM 59.4667 -68.2167 212° Southwest 460 529 38,000  Level Montreal Center
11:20AM 59.3667 -68.3333 211° Southwest 470 541 38,000  Level Montreal Center
11:21AM 59.2500 -68.4500 207° Southwest 460 529 38,000  Level Montreal Center
11:22AM 59.1333 -68.5833 210° Southwest 460 529 38,000  Level Montreal Center
11:23AM 59.0333 -68.7000 211° Southwest 460 529 38,000  Level Montreal Center
11:24AM 58.9167 -68.8167 207° Southwest 460 529 38,000  Level Montreal Center
11:25AM 58.8000 -68.9833 217° Southwest 460 529 38,000  Level Montreal Center
11:26AM 58.7167 -69.1000 216° Southwest 460 529 38,000  Level Montreal Center
11:27AM 58.6000 -69.2167 208° Southwest 460 529 38,000  Level Montreal Center
11:28AM 58.4833 -69.3333 208° Southwest 450 518 38,000  Level Montreal Center
11:29AM 58.3667 -69.4500 208° Southwest 460 529 38,000  Level Montreal Center
11:30AM 58.2500 -69.5667 208° Southwest 460 529 38,000  Level Montreal Center
11:31AM 58.1333 -69.7167 214° Southwest 470 541 38,000  Level Montreal Center
11:32AM 58.0167 -69.8333 208° Southwest 470 541 38,000  Level Montreal Center
11:33AM 57.9167 -69.9333 208° Southwest 460 529 38,000  Level Montreal Center
11:34AM 57.8000 -70.0500 208° Southwest 460 529 38,000  Level Montreal Center
11:35AM 57.7000 -70.1667 212° Southwest 460 529 38,000  Level Montreal Center
11:36AM 57.5833 -70.2833 208° Southwest 450 518 38,000  Level Montreal Center
11:37AM 57.4833 -70.3833 208° Southwest 460 529 38,000  Level Montreal Center
11:38AM 57.3667 -70.5000 208° Southwest 460 529 38,000  Level Montreal Center
11:39AM 57.2500 -70.6333 212° Southwest 460 529 38,000  Level Montreal Center
11:40AM 57.1333 -70.7500 208° Southwest 460 529 38,000  Level Montreal Center
11:41AM 57.0167 -70.8667 209° Southwest 460 529 38,000  Level Montreal Center
11:42AM 56.9167 -70.9667 209° Southwest 450 518 38,000  Level Montreal Center
11:43AM 56.8000 -71.0667 205° Southwest 460 529 38,000  Level Montreal Center
11:44AM 56.6833 -71.1833 209° Southwest 450 518 38,000  Level Montreal Center
11:45AM 56.5667 -71.2833 205° Southwest 460 529 38,000  Level Montreal Center
11:46AM 56.4667 -71.3833 209° Southwest 450 518 38,000  Level Montreal Center
11:47AM 56.3500 -71.5000 209° Southwest 450 518 38,000  Level Montreal Center
11:48AM 56.2500 -71.6000 209° Southwest 440 506 38,000  Level Montreal Center
11:49AM 56.1333 -71.7000 206° Southwest 440 506 38,000  Level Montreal Center
11:50AM 56.0167 -71.8000 206° Southwest 440 506 38,000  Level Montreal Center
11:51AM 55.9167 -71.9000 209° Southwest 440 506 38,000  Level Montreal Center
11:52AM 55.8000 -72.0000 206° Southwest 440 506 38,000  Level Montreal Center
11:53AM 55.6833 -72.1167 209° Southwest 440 506 38,000  Level Montreal Center
11:54AM 55.5833 -72.2000 205° Southwest 440 506 38,000  Level Montreal Center
11:55AM 55.4667 -72.3000 206° Southwest 440 506 38,000  Level Montreal Center
11:56AM 55.3667 -72.4000 210° Southwest 440 506 38,000  Level Montreal Center
11:57AM 55.2667 -72.5000 210° Southwest 440 506 38,000  Level Montreal Center
11:58AM 55.1500 -72.6000 206° Southwest 440 506 38,000  Level Montreal Center
11:59AM 55.0500 -72.7000 210° Southwest 440 506 38,000  Level Montreal Center
12:00PM 54.9333 -72.8000 206° Southwest 440 506 38,000  Level Montreal Center
12:01PM 54.8333 -72.9000 210° Southwest 440 506 38,000  Level Montreal Center
12:02PM 54.7000 -72.9833 200° South 440 506 38,000  Level Montreal Center
12:03PM 54.6000 -73.0833 210° Southwest 440 506 38,000  Level Montreal Center
12:04PM 54.4833 -73.1833 206° Southwest 430 495 38,000  Level Montreal Center
12:05PM 54.3833 -73.2667 206° Southwest 430 495 38,000  Level Montreal Center
12:06PM 54.2667 -73.3667 207° Southwest 430 495 38,000  Level Montreal Center
12:07PM 54.1667 -73.4667 210° Southwest 430 495 38,000  Level Montreal Center
12:08PM 54.0500 -73.5500 203° Southwest 430 495 38,000  Level Montreal Center
12:09PM 53.9500 -73.6500 210° Southwest 430 495 38,000  Level Montreal Center
12:10PM 53.8333 -73.7333 203° Southwest 430 495 38,000  Level Montreal Center
12:11PM 53.7333 -73.8000 202° Southwest 420 483 38,000  Level Montreal Center
12:12PM 53.6500 -73.8833 211° Southwest 420 483 38,000  Level Montreal Center
12:13PM 53.5333 -73.9833 207° Southwest 420 483 38,000  Level Montreal Center
12:14PM 53.4333 -74.0667 206° Southwest 430 495 38,000  Level Montreal Center
12:15PM 53.3167 -74.1667 207° Southwest 430 495 38,000  Level Montreal Center
12:16PM 53.2167 -74.2500 207° Southwest 420 483 38,000  Level Montreal Center
12:17PM 53.1000 -74.3333 203° Southwest 430 495 38,000  Level Montreal Center
12:18PM 53.0000 -74.4333 211° Southwest 430 495 38,000  Level Montreal Center
12:19PM 52.8833 -74.5167 203° Southwest 420 483 38,000  Level Montreal Center
12:20PM 52.7833 -74.6000 207° Southwest 430 495 38,000  Level Montreal Center
12:21PM 52.6667 -74.6833 203° Southwest 430 495 38,000  Level Montreal Center
12:22PM 52.5667 -74.7667 207° Southwest 430 495 38,000  Level Montreal Center
12:23PM 52.4500 -74.8667 208° Southwest 430 495 38,000  Level Montreal Center
12:24PM 52.3500 -74.9167 197° South 430 495 38,000  Level Montreal Center
12:25PM 52.2333 -75.0000 204° Southwest 410 472 38,000  Level Montreal Center
12:26PM 52.1167 -75.0833 204° Southwest 420 483 38,000  Level Montreal Center
12:27PM 52.0000 -75.1667 204° Southwest 450 518 38,000  Level Montreal Center
12:28PM 51.9000 -75.2500 207° Southwest 430 495 38,000  Level Montreal Center
12:29PM 51.7833 -75.3333 204° Southwest 430 495 38,000  Level Montreal Center
12:30PM 51.6833 -75.4167 207° Southwest 430 495 38,000  Level Montreal Center
12:31PM 51.5667 -75.5000 204° Southwest 430 495 38,000  Level Montreal Center
12:32PM 51.4667 -75.5833 207° Southwest 430 495 38,000  Level Montreal Center
12:33PM 51.3667 -75.6667 207° Southwest 430 495 38,000  Level Montreal Center
12:34PM 51.2500 -75.7500 204° Southwest 420 483 38,000  Level Montreal Center
12:35PM 51.1500 -75.8000 197° South 420 483 38,000  Level Montreal Center
12:36PM 51.0333 -75.8833 204° Southwest 420 483 38,000  Level Montreal Center
12:37PM 50.9333 -75.9667 208° Southwest 420 483 38,000  Level Montreal Center
12:38PM 50.8167 -76.0500 204° Southwest 420 483 38,000  Level Montreal Center
12:39PM 50.7167 -76.1167 203° Southwest 420 483 38,000  Level Montreal Center
12:40PM 50.6167 -76.2000 208° Southwest 420 483 38,000  Level Montreal Center
12:41PM 50.5000 -76.2833 204° Southwest 420 483 38,000  Level Montreal Center
12:42PM 50.3833 -76.3667 204° Southwest 420 483 38,000  Level Montreal Center
12:43PM 50.2833 -76.4167 198° South 420 483 38,000  Level Montreal Center
12:44PM 50.1833 -76.4833 203° Southwest 420 483 38,000  Level Montreal Center
12:45PM 50.0500 -76.5667 202° Southwest 420 483 38,000  Level Montreal Center
12:46PM 49.9500 -76.6500 208° Southwest 420 483 38,000  Level Montreal Center
12:47PM 49.8500 -76.7167 203° Southwest 420 483 38,000  Level Montreal Center
12:48PM 49.7500 -76.8000 208° Southwest 410 472 38,000  Level Montreal Center
12:49PM 49.6333 -76.8667 200° South 420 483 38,000  Level Montreal Center
12:50PM 49.5333 -76.9500 208° Southwest 400 460 38,000  Level Montreal Center
12:51PM 49.4167 -77.0000 196° South 430 495 38,000  Level Montreal Center
12:52PM 49.3167 -77.0833 209° Southwest 430 495 38,000  Level Montreal Center
12:53PM 49.2167 -77.1500 204° Southwest 400 460 38,000  Level Montreal Center
12:54PM 49.1000 -77.2167 201° Southwest 420 483 38,000  Level Montreal Center
12:55PM 49.0000 -77.3000 209° Southwest 420 483 38,000  Level Montreal Center
12:56PM 48.8833 -77.3667 201° Southwest 420 483 38,000  Level Montreal Center
12:57PM 48.7833 -77.4167 198° South 410 472 38,000  Level Montreal Center
12:58PM 48.6667 -77.5000 205° Southwest 420 483 38,000  Level Montreal Center
12:59PM 48.5667 -77.5667 204° Southwest 420 483 38,000  Level Montreal Center
01:00PM 48.4667 -77.6333 204° Southwest 420 483 38,000  Level Montreal Center
01:01PM 48.3500 -77.7167 205° Southwest 410 472 38,000  Level Montreal Center
01:02PM 48.2500 -77.7833 204° Southwest 410 472 38,000  Level Montreal Center
01:03PM 48.1500 -77.8333 198° South 410 472 38,000  Level Montreal Center
01:04PM 48.0500 -77.9000 204° Southwest 410 472 38,000  Level Montreal Center
01:05PM 47.9167 -77.9667 199° South 410 472 38,000  Level Montreal Center
01:06PM 47.8167 -78.0167 199° South 410 472 38,000  Level Montreal Center
01:07PM 47.7167 -78.0833 204° Southwest 410 472 38,000  Level Montreal Center
01:08PM 47.6000 -78.1667 206° Southwest 410 472 38,000  Level Montreal Center
01:09PM 47.5000 -78.2000 193° South 410 472 38,000  Level Montreal Center
01:10PM 47.4000 -78.2667 204° Southwest 410 472 38,000  Level Montreal Center
01:11PM 47.3000 -78.3500 209° Southwest 410 472 38,000  Level Montreal Center
01:12PM 47.2000 -78.3833 193° South 410 472 38,000  Level Montreal Center
01:13PM 47.0667 -78.4500 199° South 410 472 38,000  Level Montreal Center
01:14PM 46.9667 -78.5333 210° Southwest 410 472 38,000  Level Montreal Center
01:15PM 46.8500 -78.5667 191° South 410 472 38,000  Level Montreal Center
01:16PM 46.7500 -78.6333 205° Southwest 410 472 38,000  Level Montreal Center
01:17PM 46.6500 -78.7000 205° Southwest 410 472 38,000  Level Montreal Center
01:24PM 46.0122 -79.0413 205° Southwest 405 466 38,000  Level FlightAware ADS-B (CYOW)
01:25PM 45.9034 -79.0996 200° South 406 467 38,000  Level FlightAware ADS-B (CYOW)
01:27PM 45.4791 -79.3259 201° Southwest 409 471 38,000  Level FlightAware ADS-B
01:29PM 45.4685 -79.3315 200° South 409 471 38,000  Level FlightAware ADS-B (CYOW)
01:32PM 45.1842 -79.4815 200° South 411 473 38,000  Level FlightAware ADS-B (CYKF)
01:33PM 44.9766 -79.5897 200° South 410 472 38,000  Level FlightAware ADS-B (CYKF)
01:35PM 44.6764 -79.7819 204° Southwest 396 456 38,000  Level FlightAware ADS-B
01:36PM 44.6078 -79.8282 206° Southwest 394 453 38,000  Level FlightAware ADS-B
01:36PM 44.5512 -79.8663 206° Southwest 394 453 38,000  Level FlightAware ADS-B
01:37PM 44.4798 -79.9139 205° Southwest 395 455 38,000  Level FlightAware ADS-B
01:39PM 44.4063 -79.9629 205° Southwest 404 465 38,000  Level FlightAware ADS-B (CYKF)
01:40PM 44.3743 -79.9843 205° Southwest 403 464 38,000  Level FlightAware ADS-B (CYKF)
01:41PM 44.2007 -80.0990 205° Southwest 395 455 38,000  Level FlightAware ADS-B (CYKF)
01:42PM 44.1366 -80.1413 205° Southwest 393 452 38,000  Level FlightAware ADS-B (CYKF)
01:42PM 44.0849 -80.1755 205° Southwest 392 451 38,000  Level FlightAware ADS-B (CYKF)
01:43PM 44.0088 -80.2256 205° Southwest 394 453 38,000  Level FlightAware ADS-B (CYKF)
01:44PM 43.9441 -80.2679 205° Southwest 403 464 38,000  Level FlightAware ADS-B (CYKF)
01:44PM 43.8744 -80.3135 205° Southwest 404 465 38,000  Level FlightAware ADS-B (CYHM)
01:45PM 43.8066 -80.3575 205° Southwest 404 465 38,000  Level FlightAware ADS-B (CYHM)
01:46PM 43.7534 -80.3921 205° Southwest 402 463 38,000  Level FlightAware ADS-B (CYKF)
01:46PM 43.6749 -80.4431 205° Southwest 402 463 38,000  Level FlightAware ADS-B (CYHM)
01:47PM 43.6124 -80.4836 205° Southwest 404 465 38,000  Level FlightAware ADS-B (CYHM)
01:47PM 43.5825 -80.5028 205° Southwest 403 464 38,000  Level FlightAware ADS-B (CYHM)
01:48PM 43.4687 -80.5761 205° Southwest 403 464 38,000  Level FlightAware ADS-B (CYHM)
01:49PM 43.4019 -80.6189 205° Southwest 403 464 38,000  Level FlightAware ADS-B (CYKF)
01:50PM 43.3370 -80.6604 205° Southwest 403 464 38,000  Level FlightAware ADS-B (CYHM)
01:50PM 43.2791 -80.6975 205° Southwest 402 463 38,000  Level FlightAware ADS-B (CYHM)
01:51PM 43.2475 -80.7176 205° Southwest 404 465 38,000  Level FlightAware ADS-B (CYHM)
01:51PM 43.1634 -80.7712 205° Southwest 406 467 38,000  Level FlightAware ADS-B (CYKF)
01:52PM 43.1044 -80.8087 205° Southwest 405 466 38,000  Level FlightAware ADS-B (CYKF)
01:53PM 43.0271 -80.8576 205° Southwest 403 464 38,000  Level FlightAware ADS-B (CYKF)
01:53PM 42.9621 -80.8987 205° Southwest 401 461 38,000  Level FlightAware ADS-B (CYKF)
01:54PM 42.9010 -80.9372 205° Southwest 399 459 38,000  Level FlightAware ADS-B (CYKF)
01:54PM 42.8438 -80.9731 205° Southwest 398 458 38,000  Level FlightAware ADS-B (CYKF)
01:55PM 42.7732 -81.0175 205° Southwest 396 456 38,000  Level FlightAware ADS-B (CYKF)
01:56PM 42.6922 -81.0682 205° Southwest 396 456 38,000  Level FlightAware ADS-B (CYKF)
01:57PM 42.6275 -81.1087 205° Southwest 400 460 38,000  Level FlightAware ADS-B (CYKF)
01:57PM 42.5657 -81.1472 205° Southwest 400 460 38,000  Level FlightAware ADS-B (CYKF)
01:58PM 42.4924 -81.1927 205° Southwest 401 461 38,000  Level FlightAware ADS-B (CYKF)
01:59PM 42.4309 -81.2307 205° Southwest 400 460 38,000  Level FlightAware ADS-B (CYKF)
01:59PM 42.3562 -81.2768 205° Southwest 399 459 38,000  Level FlightAware ADS-B (CYKF)
02:00PM 42.2930 -81.3158 205° Southwest 398 458 38,000  Level FlightAware ADS-B (CYKF)
02:01PM 42.2229 -81.3591 205° Southwest 397 457 38,000  Level FlightAware ADS-B (CYKF)
02:02PM 42.0833 -81.4448 205° Southwest 394 453 38,000  Level FlightAware ADS-B (CYKF)
02:03PM 41.9975 -81.4953 205° Southwest 395 455 38,000  Level Indianapolis Center
02:04PM 41.9481 -81.5272 206° Southwest 394 453 38,000  Level Cleveland Center
02:05PM 41.8489 -81.5881 205° Southwest 391 450 38,000  Level Cleveland Center
02:06PM 41.7506 -81.6469 204° Southwest 389 448 38,000  Level Cleveland Center
02:07PM 41.6342 -81.7164 204° Southwest 389 448 38,000  Level Cleveland Center
02:08PM 41.5361 -81.7761 205° Southwest 388 447 38,000  Level Cleveland Center
02:09PM 41.4369 -81.8344 204° Southwest 389 448 38,000  Level Cleveland Center
02:10PM 41.3461 -81.8894 204° Southwest 389 448 38,000  Level Cleveland Center
02:11PM 41.2483 -81.9456 203° Southwest 388 447 38,000  Level Cleveland Center
02:12PM 41.1300 -82.0178 205° Southwest 388 447 38,000  Level Cleveland Center
02:13PM 41.0267 -82.0789 204° Southwest 389 448 38,000  Level Cleveland Center
02:14PM 40.9281 -82.1361 204° Southwest 387 445 38,000  Level Cleveland Center
02:15PM 40.8272 -82.1964 204° Southwest 390 449 38,000  Level Cleveland Center
02:16PM 40.7253 -82.2564 204° Southwest 394 453 38,000  Level Cleveland Center
02:17PM 40.6225 -82.3150 203° Southwest 396 456 38,000  Level Cleveland Center
02:18PM 40.5208 -82.3750 204° Southwest 397 457 38,000  Level Cleveland Center
02:23PM 39.9334 -82.6028 204° Southwest 442 509 38,000  Level FlightAware ADS-B (KPMH)
02:24PM 39.8052 -82.6120 183° South 442 509 38,000  Level FlightAware ADS-B (KPMH)
02:25PM 39.7235 -82.6175 183° South 439 505 38,000  Level FlightAware ADS-B (KPMH)
02:26PM 39.6249 -82.6241 183° South 435 501 38,000  Level FlightAware ADS-B (KPMH)
02:26PM 39.5361 -82.6301 183° South 434 499 38,000  Level FlightAware ADS-B (KPMH)
02:27PM 39.4213 -82.6377 183° South 433 498 38,000  Level FlightAware ADS-B (KPMH)
02:28PM 39.3316 -82.6437 183° South 431 496 38,000  Level FlightAware ADS-B (KPMH)
02:29PM 39.2506 -82.6556 187° South 410 472 38,000  Level FlightAware ADS-B (KPMH)
02:29PM 39.1945 -82.6761 196° South 409 471 38,000  Level FlightAware ADS-B (KPMH)
02:30PM 39.1161 -82.7044 196° South 411 473 38,000  Level FlightAware ADS-B (KPMH)
02:31PM 39.0624 -82.7241 196° South 411 473 38,000  Level FlightAware ADS-B (KPMH)
02:31PM 39.0016 -82.7462 196° South 411 473 38,000  Level FlightAware ADS-B (KPMH)
02:32PM 38.9523 -82.7639 196° South 412 474 38,000  Level FlightAware ADS-B (KPMH)
02:32PM 38.8680 -82.7950 196° South 413 475 38,000  Level FlightAware ADS-B (KPMH)
02:34PM 38.7368 -82.8458 197° South 410 472 38,000  Level FlightAware ADS-B (KPMH)
02:35PM 38.6305 -82.8868 197° South 411 473 38,000  Level FlightAware ADS-B (KPMH)
02:35PM 38.5688 -82.9105 197° South 411 473 38,000  Level FlightAware ADS-B (KPMH)
02:36PM 38.5134 -82.9320 197° South 412 474 38,000  Level FlightAware ADS-B (KPMH)
02:36PM 38.4346 -82.9621 197° South 413 475 38,000  Level FlightAware ADS-B (KPMH)
02:37PM 38.3286 -83.0025 197° South 417 480 38,000  Level FlightAware ADS-B (KPMH)
02:38PM 38.2750 -83.0228 197° South 418 481 38,000  Level FlightAware ADS-B (KPMH)
02:39PM 38.1931 -83.0540 197° South 420 483 38,000  Level FlightAware ADS-B (KPMH)
02:40PM 38.0848 -83.0949 197° South 419 482 38,000  Level FlightAware ADS-B (KPMH)
02:40PM 37.9964 -83.1283 197° South 420 483 38,000  Level FlightAware ADS-B (KPMH)
02:41PM 37.9342 -83.1518 197° South 417 480 38,000  Level FlightAware ADS-B (KPMH)
02:42PM 37.8053 -83.2002 197° South 418 481 38,000  Level FlightAware ADS-B (KPMH)
02:43PM 37.7169 -83.2356 197° South 417 480 38,000  Level Indianapolis Center
02:44PM 37.5867 -83.2833 196° South 418 481 38,000  Level Indianapolis Center
02:45PM 37.4728 -83.3253 196° South 425 489 38,000  Level Indianapolis Center
02:46PM 37.3594 -83.3669 196° South 425 489 38,000  Level Indianapolis Center
02:47PM 37.2478 -83.4086 197° South 421 484 38,000  Level Indianapolis Center
02:48PM 37.1381 -83.4486 196° South 413 475 38,000  Level Indianapolis Center
02:49PM 37.0303 -83.4886 197° South 405 466 38,000  Level Indianapolis Center
02:50PM 36.9044 -83.5339 196° South 405 466 38,000  Level Indianapolis Center
02:51PM 36.7942 -83.5744 196° South 409 471 38,000  Level Indianapolis Center
02:52PM 36.6831 -83.6147 196° South 417 480 38,000  Level Indianapolis Center
02:53PM 36.5717 -83.6553 196° South 417 480 38,000  Level Indianapolis Center
02:54PM 36.4619 -83.6944 196° South 405 466 38,000  Level Indianapolis Center
02:55PM 36.3525 -83.7339 196° South 406 467 38,000  Level Indianapolis Center
02:56PM 36.2433 -83.7722 196° South 406 467 38,000  Level Indianapolis Center
02:57PM 36.1122 -83.8228 197° South 411 473 38,000  Level Atlanta Center
02:58PM 36.0019 -83.8617 196° South 411 473 38,000  Level Atlanta Center
03:04PM 35.2950 -84.0425 196° South 429 494 38,000  Level FlightAware ADS-B (KDZJ)
03:05PM 35.1830 -84.0694 191° South 425 489 38,000  Level FlightAware ADS-B (KDZJ)
03:05PM 35.1019 -84.0889 191° South 426 490 38,000  Level FlightAware ADS-B (KDZJ)
03:06PM 35.0215 -84.1081 191° South 426 490 38,000  Level FlightAware ADS-B (KDZJ)
03:07PM 34.9408 -84.1272 191° South 425 489 38,000  Level FlightAware ADS-B (KDZJ)
03:07PM 34.8666 -84.1450 191° South 425 489 38,000  Level FlightAware ADS-B (KDZJ)
03:08PM 34.8036 -84.1600 191° South 426 490 38,000  Level FlightAware ADS-B (KDZJ)
03:09PM 34.7049 -84.1834 191° South 428 493 38,000  Level FlightAware ADS-B (KDZJ)
03:09PM 34.6252 -84.2021 191° South 429 494 38,000  Level FlightAware ADS-B (KDZJ)
03:10PM 34.5587 -84.2179 191° South 428 493 38,000  Level FlightAware ADS-B (KDZJ)
03:11PM 34.4653 -84.2401 191° South 429 494 38,000  Level FlightAware ADS-B (KDZJ)
03:11PM 34.3847 -84.2591 191° South 429 494 38,000  Level FlightAware ADS-B (KDZJ)
03:12PM 34.3058 -84.2775 191° South 430 495 38,000  Level FlightAware ADS-B (KDZJ)
03:13PM 34.2255 -84.2963 191° South 430 495 38,000  Level FlightAware ADS-B (KDZJ)
03:13PM 34.1465 -84.3148 191° South 439 505 38,000  Level FlightAware ADS-B (KDZJ)
03:14PM 34.0652 -84.3339 191° South 440 506 38,000  Level FlightAware ADS-B (KDZJ)
03:15PM 33.9853 -84.3525 191° South 440 506 38,000  Level FlightAware ADS-B (KDZJ)
03:15PM 34.0131 -84.3469 191° South 444 511 38,000  Level Atlanta Center
03:16PM 33.8939 -84.3742 191° South 444 511 38,000  Level Atlanta Center
03:17PM 33.7728 -84.4036 191° South 449 517 38,000 -120 Level Atlanta Center
03:18PM 33.6456 -84.4306 190° South 453 521 37,800 -300 Descending Atlanta Center
03:19PM 33.5369 -84.4350 182° South 453 521 37,400 -300 Descending Atlanta Center
03:21PM 33.2739 -84.4314 178° South 464 534 37,000 -180 Descending Atlanta Center
03:22PM 33.1467 -84.4283 179° South 464 534 37,000  Level Atlanta Center
03:23PM 33.0192 -84.4278 180° South 464 534 37,000  Level Atlanta Center
03:24PM 32.8856 -84.4247 179° South 464 534 37,000  Level Atlanta Center
03:25PM 32.7436 -84.4217 179° South 464 534 37,000  Level Atlanta Center
03:26PM 32.6144 -84.4186 179° South 464 534 37,000  Level Atlanta Center
03:27PM 32.4850 -84.4106 177° South 464 534 37,000  Level Atlanta Center
03:28PM 32.3786 -84.4078 179° South 469 540 37,000  Level Atlanta Center
03:29PM 32.2386 -84.4047 179° South 469 540 37,000  Level Atlanta Center
03:30PM 32.1033 -84.4033 180° South 473 544 37,000  Level Jacksonville Center
03:31PM 31.9758 -84.4014 179° South 473 544 37,000  Level Jacksonville Center
03:32PM 31.8403 -84.3989 179° South 473 544 37,000  Level Jacksonville Center
03:33PM 31.7086 -84.3969 179° South 473 544 37,000  Level Jacksonville Center
03:34PM 31.5772 -84.3922 178° South 479 551 37,000  Level Jacksonville Center
03:40PM 30.8928 -84.3805 178° South 474 545 37,000  Level FlightAware ADS-B (KTLH)
03:40PM 30.7987 -84.3787 179° South 474 545 37,000  Level FlightAware ADS-B (KTLH)
03:41PM 30.7059 -84.3753 178° South 482 555 37,000  Level FlightAware ADS-B (KTLH)
03:42PM 30.6151 -84.3603 172° South 497 572 37,000  Level FlightAware ADS-B (KTLH)
03:42PM 30.5378 -84.3374 166° South 509 586 37,000  Level FlightAware ADS-B (KTLH)
03:43PM 30.4503 -84.2993 159° South 523 602 37,000  Level FlightAware ADS-B (KTLH)
03:44PM 30.3669 -84.2492 153° Southeast 530 610 37,000  Level FlightAware ADS-B (KTLH)
03:44PM 30.2743 -84.1888 151° Southeast 525 604 37,000  Level FlightAware ADS-B (KTLH)
03:45PM 30.1891 -84.1334 151° Southeast 524 603 37,000  Level FlightAware ADS-B (KTLH)
03:46PM 30.0958 -84.0728 151° Southeast 524 603 37,000  Level FlightAware ADS-B (KTLH)
03:46PM 30.0281 -84.0288 151° Southeast 526 605 37,000  Level FlightAware ADS-B (KTLH)
03:47PM 29.9356 -83.9688 151° Southeast 525 604 37,000  Level FlightAware ADS-B (KTLH)
03:48PM 29.9010 -83.9463 151° Southeast 523 602 37,000  Level FlightAware ADS-B (KTLH)
03:48PM 29.7431 -83.8447 151° Southeast 522 601 37,000  Level Jacksonville Center
03:49PM 29.6142 -83.7644 152° Southeast 522 601 37,000  Level Jacksonville Center
03:50PM 29.4875 -83.6847 151° Southeast 522 601 37,000  Level Jacksonville Center
03:51PM 29.3586 -83.6025 151° Southeast 522 601 37,000 -60 Level Jacksonville Center
03:52PM 29.2336 -83.5208 150° Southeast 522 601 36,900  Descending Jacksonville Center
03:53PM 29.1089 -83.4392 150° Southeast 522 601 37,000  Climbing Jacksonville Center
03:54PM 28.9922 -83.3650 151° Southeast 522 601 37,000  Level Jacksonville Center
04:00PM 28.2063 -82.9845 151° Southeast 498 573 37,000  Level FlightAware ADS-B (KMCO)
04:01PM 28.0752 -82.9273 159° South 494 568 37,000  Level FlightAware ADS-B (KMCO)
04:03PM 27.9416 -82.8690 159° South 496 571 37,000  Level FlightAware ADS-B (KMCO)
04:04PM 27.6900 -82.7599 159° South 497 572 37,000  Level FlightAware ADS-B (KMCO)
04:05PM 27.6061 -82.7236 159° South 497 572 37,000  Level FlightAware ADS-B (KMCO)
04:06PM 27.5414 -82.6956 159° South 496 571 37,000  Level FlightAware ADS-B (KMCO)
04:10PM 27.0103 -82.6429 175° South 457 526 37,000  Level FlightAware ADS-B (KMCO)
04:11PM 26.8499 -82.6361 178° South 456 525 37,000  Level FlightAware ADS-B (KMCO)
04:13PM 26.6344 -82.6271 178° South 458 527 37,000  Level FlightAware ADS-B (KMCO)
04:13PM 26.5412 -82.6231 178° South 460 529 37,000  Level FlightAware ADS-B (KMCO)
04:14PM 26.4537 -82.6195 178° South 461 531 37,000  Level FlightAware ADS-B (KMCO)
04:15PM 26.3695 -82.6159 178° South 460 529 37,000  Level FlightAware ADS-B (KMCO)
04:15PM 26.2821 -82.6123 178° South 460 529 37,000  Level FlightAware ADS-B (KMCO)
04:17PM 26.0720 -82.6035 178° South 457 526 37,000  Level FlightAware ADS-B (KMCO)
04:18PM 26.0100 -82.6009 178° South 459 528 37,000  Level FlightAware ADS-B (KMCO)
04:18PM 25.9010 -82.5964 178° South 460 529 37,000  Level FlightAware ADS-B (KMCO)
04:19PM 25.8158 -82.5929 178° South 461 531 37,000  Level FlightAware ADS-B (KMCO)
04:20PM 25.7371 -82.5896 178° South 462 532 37,000  Level FlightAware ADS-B (KMCO)
04:20PM 25.6469 -82.5859 178° South 463 533 37,000  Level FlightAware ADS-B (KMCO)
04:21PM 25.5589 -82.5822 178° South 464 534 37,000 -240 Level FlightAware ADS-B (KMCO)
04:22PM 25.4302 -82.5770 178° South 464 534 36,600 -720 Descending FlightAware ADS-B (KMCO)
04:23PM 25.2996 -82.5716 178° South 461 531 35,600 -960 Descending FlightAware ADS-B (KMCO)
04:24PM 25.2278 -82.5703 178° South 460 529 35,000 -960 Descending Miami Center
04:25PM 25.0986 -82.5664 178° South 460 529 34,000 -1,020 Descending Miami Center
04:26PM 24.9694 -82.5606 178° South 460 529 33,000 -1,020 Descending Miami Center
04:27PM 24.8422 -82.5569 179° South 460 529 32,000 -1,020 Descending Miami Center
04:28PM 24.7172 -82.5511 178° South 460 529 31,000 -1,020 Descending Miami Center
04:29PM 24.5919 -82.5453 178° South 455 524 30,000 -1,140 Descending Miami Center
04:30PM 24.4608 -82.5394 178° South 461 531 28,800 -1,260 Descending Miami Center
04:31PM 24.3378 -82.5361 179° South 461 531 27,500 -1,560 Descending Miami Center
04:32PM 24.2211 -82.5308 178° South 449 517 25,700 -1,920 Descending Miami Center
04:33PM 24.1022 -82.5253 178° South 435 501 23,700 -1,740 Descending Miami Center
04:34PM 23.9833 -82.5222 179° South 435 501 22,300 -1,620 Descending Miami Center
04:35PM 23.8786 -82.5311 184° South 410 472 20,500 -2,100 Descending Miami Center
04:36PM 23.7758 -82.5447 187° South 390 449 17,800 -2,280 Descending Miami Center
04:38PM 23.6018 -82.4669 175° South  Level FlightAware Approximate
04:45PM 22.9891 -82.4091 180° South  Level Estimated
04:46PM 22.9891 -82.4091 180° South  Level Estimated
04:47PM 22.9891 -82.4091 180° South  Level Estimated
04:48PM 22.9891 -82.4091 180° South  Level Estimated
04:49PM 22.9891 -82.4091 180° South  Level Estimated
04:50PM 22.9891 -82.4091 180° South  Level Estimated
04:51PM 22.9891 -82.4091 180° South  Level Estimated
04:52PM 22.9891 -82.4091 180° South  Level Estimated
04:53PM 22.9891 -82.4091 180° South  Level Estimated
04:54PM 22.9891 -82.4091 180° South  Level Estimated
04:55PM 22.9891 -82.4091 180° South  Level Estimated
04:56PM 22.9891 -82.4091 180° South  Level Estimated
04:57PM 22.9891 -82.4091 180° South  Level Estimated
04:58PM 22.9891 -82.4091 180° South  Level Estimated
04:59PM 22.9891 -82.4091 180° South  Level Estimated
05:00PM 22.9891 -82.4091 180° South  Level Estimated
05:01PM 22.9891 -82.4091 180° South  Level Estimated
05:02PM 22.9891 -82.4091 180° South  Level Estimated
05:03PM 22.9891 -82.4091 180° South  Level Estimated
05:04PM 22.9891 -82.4091 180° South  Level Estimated
05:05PM 22.9891 -82.4091 180° South  Level Estimated
05:06PM 22.9891 -82.4091 180° South  Level Estimated